Warwick, RI

3:05 AM EDT on October 26, 2014 (GMT -0400)
Cowesett | Change Station
CLOSE
Current Station
Personal Weather Station
Location: Warwick, RI
Elevation: 12 ft
Nearby Weather Stations

Elev 12 ft 41.69 °N, 71.46 °W | Updated 1 minute ago

Mostly Cloudy
Mostly Cloudy
57.5 °F
Feels Like 57.5 °F
N
5.0
Wind Variable Wind from WSW
Gusts 9.0 mph

Today
High -- | Low -- °F
--% Chance of Precip.
Yesterday
High -- | Low -- °F
Precip. -- in
7:10 AM 5:48 PM
Waxing Crescent, 6% visible
Pressure 29.49 in
Visibility 10.0 miles
Clouds Mostly Cloudy 11000 ft
Dew Point 49 °F
Humidity 73%
Rainfall 0.00 in
Snow Depth Not available.
UV 0.0 out of 12
Pollen 1.10 out of 12
Ozone Good
PM2.5 Moderate
Flu Activity No Activity
METAR KPVD 260651Z 25007KT 10SM BKN110 13/07 A2949 RMK AO2 SLP986 T01330072

More Conditions Fewer Conditions

Pressure 29.49 in
Visibility 10.0 miles
Clouds Mostly Cloudy 11000 ft
Dew Point 49 °F
Humidity 73%
Rainfall 0.00 in
Snow Depth Not available.
UV 0.0 out of 12
Pollen 1.10 out of 12
Ozone Good
PM2.5 Moderate
Flu Activity No Activity
METAR KPVD 260651Z 25007KT 10SM BKN110 13/07 A2949 RMK AO2 SLP986 T01330072

More Conditions Fewer Conditions

10-Day Weather Forecast

Almanac

Astronomy

Oct. 26, 2014 Rise Set
Actual Time 7:10 AM EDT 5:48 PM EDT
Civil Twilight 6:42 AM EDT 6:16 PM EDT
Nautical Twilight 6:09 AM EDT 6:49 PM EDT
Astronomical Twilight 5:37 AM EDT 7:21 PM EDT
Moon 9:47 AM EDT 7:55 PM EDT
Length of Visible Light 11h 34m
Length of Day
10h 37m
Tomorrow will be 2m 34s shorter.
Waxing Crescent, 6% of the Moon is Illuminated
Today
Waxing Crescent
Oct 30
First Quarter
Nov 6
Full
Nov 14
Last Quarter
Nov 22
New

Today's Extremes

State Highs State Lows

Community

WunderPhotos

Upload Photos

1,765,115 photos uploaded!

Nearby

Air Quality

  Air Quality AQ Index Pollutant
Yesterday Good
OZONE
Yesterday Good
PM2.5
Current Moderate
PM2.5
Current Good
OZONE
Sunday Good
OZONE
Sunday Good
PM2.5
Monday Good
OZONE
Monday Good
PM2.5

Snow Depth

Station Depth Elevation
No new snow has been reported.

Earthquake Activity

City Distance Mag. Time & Date
No recent earthquake activity has been reported nearby.
Minimum magnitude displayed is 2.5.

Coastal Water Temperatures

Place Temperature
Newport, RI 60.1 °F
Quonset Point, RI 59.0 °F
Conimicut Light, RI 60.1 °F

Nearby Weather Stations